Map

Track Data

SID SEASON NUMBER BASIN SUBBASIN NAME ISO_TIME NATURE LAT LON WMO_WIND WMO_PRES WMO_AGENCY TRACK_TYPE DIST2LAND LANDFALL IFLAG USA_AGENCY USA_ATCF_ID USA_LAT USA_LON USA_RECORD USA_STATUS USA_WIND USA_PRES USA_SSHS USA_R34_NE USA_R34_SE USA_R34_SW USA_R34_NW USA_R50_NE USA_R50_SE USA_R50_SW USA_R50_NW USA_R64_NE USA_R64_SE USA_R64_SW USA_R64_NW USA_POCI USA_ROCI USA_RMW USA_EYE TOKYO_LAT TOKYO_LON TOKYO_GRADE TOKYO_WIND TOKYO_PRES TOKYO_R50_DIR TOKYO_R50_LONG TOKYO_R50_SHORT TOKYO_R30_DIR TOKYO_R30_LONG TOKYO_R30_SHORT TOKYO_LAND CMA_LAT CMA_LON CMA_CAT CMA_WIND CMA_PRES HKO_LAT HKO_LON HKO_CAT HKO_WIND HKO_PRES NEWDELHI_LAT NEWDELHI_LON NEWDELHI_GRADE NEWDELHI_WIND NEWDELHI_PRES NEWDELHI_CI NEWDELHI_DP NEWDELHI_POCI REUNION_LAT REUNION_LON REUNION_TYPE REUNION_WIND REUNION_PRES REUNION_TNUM REUNION_CI REUNION_RMW REUNION_R34_NE REUNION_R34_SE REUNION_R34_SW REUNION_R34_NW REUNION_R50_NE REUNION_R50_SE REUNION_R50_SW REUNION_R50_NW REUNION_R64_NE REUNION_R64_SE REUNION_R64_SW REUNION_R64_NW BOM_LAT BOM_LON BOM_TYPE BOM_WIND BOM_PRES BOM_TNUM BOM_CI BOM_RMW BOM_R34_NE BOM_R34_SE BOM_R34_SW BOM_R34_NW BOM_R50_NE BOM_R50_SE BOM_R50_SW BOM_R50_NW BOM_R64_NE BOM_R64_SE BOM_R64_SW BOM_R64_NW BOM_ROCI BOM_POCI BOM_EYE BOM_POS_METHOD BOM_PRES_METHOD NADI_LAT NADI_LON NADI_CAT NADI_WIND NADI_PRES WELLINGTON_LAT WELLINGTON_LON WELLINGTON_WIND WELLINGTON_PRES DS824_LAT DS824_LON DS824_STAGE DS824_WIND DS824_PRES TD9636_LAT TD9636_LON TD9636_STAGE TD9636_WIND TD9636_PRES TD9635_LAT TD9635_LON TD9635_WIND TD9635_PRES TD9635_ROCI NEUMANN_LAT NEUMANN_LON NEUMANN_CLASS NEUMANN_WIND NEUMANN_PRES MLC_LAT MLC_LON MLC_CLASS MLC_WIND MLC_PRES USA_GUST BOM_GUST BOM_GUST_PER REUNION_GUST REUNION_GUST_PER USA_SEAHGT USA_SEARAD_NE USA_SEARAD_SE USA_SEARAD_SW USA_SEARAD_NW STORM_SPEED STORM_DIR
1896170N21089 1896 13 NI BB NOT_NAMED 1896-06-18 00:00:00 TS 20.6000 89.1000 main 111 89 _________O____ -1 20.6000 89.1000 TC 45 4 343
1896170N21089 1896 13 NI BB NOT_NAMED 1896-06-18 03:00:00 TS 20.7733 89.0334 main 89 67 _________PO___ -1 20.8600 89.0001 TC 45 20.6000 89.1000 3 4 338
1896170N21089 1896 13 NI BB NOT_NAMED 1896-06-18 06:00:00 TS 20.9913 88.9327 main 67 44 _________OP___ -1 21.1000 88.9000 TC 45 20.8284 88.9817 3 5 336
1896170N21089 1896 13 NI BB NOT_NAMED 1896-06-18 09:00:00 TS 21.1994 88.8302 main 45 24 _________PP___ -1 21.3075 88.8000 TC 45 21.0553 88.8706 3 4 336
1896170N21089 1896 13 NI BB NOT_NAMED 1896-06-18 12:00:00 TS 21.3898 88.7371 main 30 11 _________OP___ -1 21.5000 88.7000 TC 45 21.2796 88.7742 3 4 337
1896170N21089 1896 13 NI BB NOT_NAMED 1896-06-18 15:00:00 TS 21.6000 88.6500 main 10 0 _________PO___ -1 21.7000 88.6000 TC 45 21.5000 88.7000 3 4 340
1896170N21089 1896 13 NI BB NOT_NAMED 1896-06-18 18:00:00 TS 21.8075 88.5741 main 0 0 _________OP___ -1 21.9000 88.5000 TC 45 21.7149 88.6483 3 4 343
1896170N21089 1896 13 NI BB NOT_NAMED 1896-06-18 21:00:00 TS 22.0071 88.5133 main 0 0 _________PP___ -1 22.0924 88.4373 TC 45 21.9218 88.5893 3 4 337
1896170N21089 1896 13 NI BB NOT_NAMED 1896-06-19 00:00:00 TS 22.2089 88.3929 main 0 0 _________OP___ -1 22.3000 88.3000 TC 45 22.1178 88.4857 3 5 322
1896170N21089 1896 13 NI BB NOT_NAMED 1896-06-19 03:00:00 TS 22.4362 88.1514 main 0 0 _________PO___ -1 22.5725 88.0028 TC 45 22.3000 88.3000 3 7 308
1896170N21089 1896 13 NI BB NOT_NAMED 1896-06-19 06:00:00 TS 22.6426 87.7934 main 0 0 _________OP___ -1 22.8000 87.6000 TC 45 22.4851 87.9868 3 8 295
1896170N21089 1896 13 NI BB NOT_NAMED 1896-06-19 09:00:00 TS 22.7666 87.3740 main 0 0 _________PP___ -1 22.8800 87.1572 TC 45 22.6531 87.5908 3 8 284
1896170N21089 1896 13 NI BB NOT_NAMED 1896-06-19 12:00:00 TS 22.8472 86.9246 main 0 0 _________OP___ -1 22.9000 86.7000 TC 45 22.7944 87.1493 3 8 281
1896170N21089 1896 13 NI BB NOT_NAMED 1896-06-19 15:00:00 TS 22.9287 86.4963 main 0 0 _________PO___ -1 22.9573 86.2925 TC 41 22.9000 86.7000 3 8 280
1896170N21089 1896 13 NI BB NOT_NAMED 1896-06-19 18:00:00 TS 22.9801 86.1098 main 0 0 _________OP___ -1 23.0000 85.9000 TC 37 22.9602 86.3197 3 7 276
1896170N21089 1896 13 NI BB NOT_NAMED 1896-06-19 21:00:00 TS 22.9968 85.7296 main 0 0 _________PP___ -1 23.0072 85.5224 TC 33 22.9865 85.9367 3 7 271
1896170N21089 1896 13 NI BB NOT_NAMED 1896-06-20 00:00:00 TS 22.9972 85.3177 main 0 0 _________OP___ -1 23.0000 85.1000 TC 30 22.9945 85.5354 3 8 270
1896170N21089 1896 13 NI BB NOT_NAMED 1896-06-20 03:00:00 TS 22.9963 84.8325 main 0 0 _________PO___ -1 22.9926 84.5649 TC 30 23.0000 85.1000 1 9 270
1896170N21089 1896 13 NI BB NOT_NAMED 1896-06-20 06:00:00 TS 23.0044 84.3032 main 0 0 _________OP___ -1 23.0000 84.0000 TC 30 23.0089 84.6064 1 10 272
1896170N21089 1896 13 NI BB NOT_NAMED 1896-06-20 09:00:00 TS 23.0275 83.7859 main 0 0 _________PP___ -1 23.0348 83.4925 TC 30 23.0201 84.0792 1 10 274
1896170N21089 1896 13 NI BB NOT_NAMED 1896-06-20 12:00:00 TS 23.0731 83.2688 main 0 0 _________OP___ -1 23.1000 83.0000 TC 30 23.0463 83.5375 1 10 277
1896170N21089 1896 13 NI BB NOT_NAMED 1896-06-20 15:00:00 TS 23.1424 82.7500 main 0 0 _________PO___ -1 23.1848 82.4999 TC 30 23.1000 83.0000 1 10 280
1896170N21089 1896 13 NI BB NOT_NAMED 1896-06-20 18:00:00 TS 23.2440 82.2364 main 0 0 _________OP___ -1 23.3000 82.0000 TC 30 23.1880 82.4727 1 10 284
1896170N21089 1896 13 NI BB NOT_NAMED 1896-06-20 21:00:00 TS 23.3737 81.7201 main 0 0 _________PP___ -1 23.4425 81.4850 TC 30 23.3049 81.9553 1 10 287
1896170N21089 1896 13 NI BB NOT_NAMED 1896-06-21 00:00:00 TS 23.5222 81.2301 main 0 0 _________OP___ -1 23.6000 81.0000 TC 30 23.4443 81.4601 1 9 289
1896170N21089 1896 13 NI BB NOT_NAMED 1896-06-21 03:00:00 TS 23.6712 80.7887 main 0 0 _________PO___ -1 23.7423 80.5773 TC 30 23.6000 81.0000 1 8 292
1896170N21089 1896 13 NI BB NOT_NAMED 1896-06-21 06:00:00 TS 23.8321 80.3844 main 0 0 _________OP___ -1 23.9000 80.2000 TC 30 23.7642 80.5688 1 8 296
1896170N21089 1896 13 NI BB NOT_NAMED 1896-06-21 09:00:00 TS 24.0210 80.0013 main 0 0 _________PP___ -1 24.1000 79.8275 TC 30 23.9420 80.1751 1 8 300
1896170N21089 1896 13 NI BB NOT_NAMED 1896-06-21 12:00:00 TS 24.2119 79.6594 main 0 0 _________OP___ -1 24.3000 79.5000 TC 30 24.1238 79.8188 1 7 302
1896170N21089 1896 13 NI BB NOT_NAMED 1896-06-21 15:00:00 TS 24.3787 79.3674 main 0 0 _________PO___ -1 24.4574 79.2348 TC 30 24.3000 79.5000 1 5 304
1896170N21089 1896 13 NI BB NOT_NAMED 1896-06-21 18:00:00 TS 24.5001 79.1819 main 0 0 _________OP___ -1 24.6000 79.0000 TC 30 24.4002 79.3638 1 4 309
1896170N21089 1896 13 NI BB NOT_NAMED 1896-06-21 21:00:00 TS 24.5994 79.0652 main 0 0 _________PP___ -1 24.6958 78.8906 TC 30 24.5030 79.2397 1 5 305
1896170N21089 1896 13 NI BB NOT_NAMED 1896-06-22 00:00:00 TS 24.7772 78.7480 main 0 0 _________OP___ -1 24.9000 78.5000 TC 30 24.6545 78.9961 1 11 298
1896170N21089 1896 13 NI AS NOT_NAMED 1896-06-22 03:00:00 TS 25.1283 77.9720 main 0 0 _________PO___ -1 25.3566 77.4440 TC 30 24.9000 78.5000 1 19 296
1896170N21089 1896 13 NI AS NOT_NAMED 1896-06-22 06:00:00 TS 25.6094 76.8375 main 0 0 _________OP___ -1 25.9000 76.1000 TC 30 25.3188 77.5749 1 23 295
1896170N21089 1896 13 NI AS NOT_NAMED 1896-06-22 09:00:00 TS 26.0954 75.6388 main 0 0 _________PP___ -1 26.3717 74.8919 TC 30 25.8192 76.3856 1 24 293
1896170N21089 1896 13 NI AS NOT_NAMED 1896-06-22 12:00:00 TS 26.5671 74.3762 main 0 0 _________OP___ -1 26.8000 73.7000 TC 30 26.3341 75.0525 1 24 292
1896170N21089 1896 13 NI AS NOT_NAMED 1896-06-22 15:00:00 TS 26.9931 73.1247 main 0 0 _________PO___ -1 27.1862 72.5494 TC 30 26.8000 73.7000 1 23 289
1896170N21089 1896 13 NI AS NOT_NAMED 1896-06-22 18:00:00 TS 27.3126 71.9888 main 0 0 _________OP___ -1 27.5000 71.4000 TC 30 27.1720 72.4304 1 21 286
1896170N21089 1896 13 NI AS NOT_NAMED 1896-06-22 21:00:00 TS 27.5686 70.8307 main 0 0 _________PP___ -1 27.7273 70.2131 TC 30 27.4627 71.2425 1 20 283
1896170N21089 1896 13 NI AS NOT_NAMED 1896-06-23 00:00:00 TS 27.7649 69.7391 main 0 0 _________OP___ -1 27.9000 69.0000 TC 30 27.6973 70.1086 1 17 282
1896170N21089 1896 13 NI AS NOT_NAMED 1896-06-23 03:00:00 NR 27.9000 69.0000 main 0 __________O___ -1 TC 27.9000 69.0000 1 13 282

About IBTrACS Database

This database is a web-friendly format of International Best Track Archive for Climate Stewardship (IBTrACS), a global best track data archive curated by NOAA dating back to 1842.

Updated: 2021-12-03